La Grande Rivière Airport
CYGL : now visible

Airfield :











YOU CAN JOIN US ON...

 
LOGIN :

Register | Disclaimer

   EN    FR    IT 

 









Legend :    VFR   Marginal VFR   IFR   Intensive IFR   Very Intensive IFR
Visi :
Ceiling :
>= 8 km
>= 3000ft
5 to 8 km
1000 to 3000 ft
1500m to 5 km
500 to 1000 ft
800 to 1500m
200 to 500 ft
< 800m
< 200 ft
Symbols :   Thunderstorms  Fog  Heavy snow  Heavy precipitations  Wind > 20 kt






- Airport Elevation : 639 ft
- IATA code : YGL


CYGL - La Grande Rivière

CURRENT METAR :
  • 290700Z 28013G20KT 3SM -FZDZ BR OVC004 M00/M01 A2979 RMK SF8 SLP100

EXPIRED METARs :
  • 290600Z 28015KT 3SM -FZDZ BR OVC004 M00/M01 A2977 RMK SF8 FROIN SLP094
  • 290500Z 27014KT 3SM -FZDZ BR OVC004 M00/M00 A2977 RMK SF8 SLP093

TAF TAF CYGL
Valid from the 29 at 06:00 until the 30 at 06:00 UTC


290540Z 2906/3006 27015KT 3SM -FZDZ -SN BR OVC004
TEMPO 2906/2910 6SM BR OVC008
FM291000 28012G22KT 2SM -SN -DZ BR OVC006
PROB30 2910/2912 1 1/2SM -FZDZ BR
FM291400 27010G20KT P6SM OVC010
FM292200 28010KT P6SM BKN020 RMK NXT FCST BY 291200Z
CZUL FIR / North America



MET'MAP, your aeronautical weather chart ! - Copyright ORBIFLY December 2007 - Disclaimer

ORBIFLY MET'MAP TEAM :

Programming & Development : Alexandra Zaïnal
Original concept : Baudouin d'Aumeries
Technical & hardware support : Manuel Goepfert
Assistance : Marc-Olivier Méhu

Contact : metmap@orbifly.com




SOURCES & CREDITS :

   NOAA       Earth
Advisory